sensor_id;sensor_type;location;lat;lon;timestamp;temperature;humidity
14877;DHT22;22152;48.158;17.118;2023-04-01T00:02:21;11.60;64.90
14877;DHT22;22152;48.158;17.118;2023-04-01T00:05:10;11.70;64.80
14877;DHT22;22152;48.158;17.118;2023-04-01T00:07:50;11.80;64.30
14877;DHT22;22152;48.158;17.118;2023-04-01T00:10:36;11.90;64.00
14877;DHT22;22152;48.158;17.118;2023-04-01T00:13:15;12.10;63.60
14877;DHT22;22152;48.158;17.118;2023-04-01T00:16:02;12.20;63.10
14877;DHT22;22152;48.158;17.118;2023-04-01T00:18:42;12.30;62.40
14877;DHT22;22152;48.158;17.118;2023-04-01T00:21:28;12.40;63.10
14877;DHT22;22152;48.158;17.118;2023-04-01T00:24:08;12.50;62.50
14877;DHT22;22152;48.158;17.118;2023-04-01T00:26:55;12.50;62.10
14877;DHT22;22152;48.158;17.118;2023-04-01T00:29:34;12.60;61.50
14877;DHT22;22152;48.158;17.118;2023-04-01T00:32:20;12.60;61.20
14877;DHT22;22152;48.158;17.118;2023-04-01T00:34:59;12.70;61.20
14877;DHT22;22152;48.158;17.118;2023-04-01T00:37:45;12.70;60.70
14877;DHT22;22152;48.158;17.118;2023-04-01T00:40:36;12.70;60.50
14877;DHT22;22152;48.158;17.118;2023-04-01T00:43:31;12.60;60.30
14877;DHT22;22152;48.158;17.118;2023-04-01T00:46:04;12.60;60.50
14877;DHT22;22152;48.158;17.118;2023-04-01T00:48:57;12.50;60.50
14877;DHT22;22152;48.158;17.118;2023-04-01T00:51:30;12.50;60.80
14877;DHT22;22152;48.158;17.118;2023-04-01T00:54:24;12.40;60.90
14877;DHT22;22152;48.158;17.118;2023-04-01T00:57:07;12.40;61.30
14877;DHT22;22152;48.158;17.118;2023-04-01T01:00:10;12.30;61.40
14877;DHT22;22152;48.158;17.118;2023-04-01T01:02:52;12.30;61.50
14877;DHT22;22152;48.158;17.118;2023-04-01T01:12:34;12.50;61.70
14877;DHT22;22152;48.158;17.118;2023-04-01T01:15:25;12.50;61.40
14877;DHT22;22152;48.158;17.118;2023-04-01T01:18:39;12.60;61.20
14877;DHT22;22152;48.158;17.118;2023-04-01T01:27:18;12.60;61.10
14877;DHT22;22152;48.158;17.118;2023-04-01T01:30:32;12.50;61.10
14877;DHT22;22152;48.158;17.118;2023-04-01T01:33:43;12.50;61.20
14877;DHT22;22152;48.158;17.118;2023-04-01T01:36:37;12.50;61.90
14877;DHT22;22152;48.158;17.118;2023-04-01T01:39:28;12.50;61.20
14877;DHT22;22152;48.158;17.118;2023-04-01T01:42:25;12.50;61.20
14877;DHT22;22152;48.158;17.118;2023-04-01T01:44:59;12.50;61.40
14877;DHT22;22152;48.158;17.118;2023-04-01T01:47:53;12.50;61.20
14877;DHT22;22152;48.158;17.118;2023-04-01T01:50:27;12.50;61.40
14877;DHT22;22152;48.158;17.118;2023-04-01T01:53:23;12.50;61.40
14877;DHT22;22152;48.158;17.118;2023-04-01T01:55:55;12.40;62.40
14877;DHT22;22152;48.158;17.118;2023-04-01T01:58:53;12.40;61.70
14877;DHT22;22152;48.158;17.118;2023-04-01T02:01:32;12.30;61.80
14877;DHT22;22152;48.158;17.118;2023-04-01T02:04:26;12.40;61.90
14877;DHT22;22152;48.158;17.118;2023-04-01T02:07:06;12.50;61.80
14877;DHT22;22152;48.158;17.118;2023-04-01T02:10:02;12.50;61.50
14877;DHT22;22152;48.158;17.118;2023-04-01T02:12:36;12.60;61.60
14877;DHT22;22152;48.158;17.118;2023-04-01T02:15:31;12.60;61.30
14877;DHT22;22152;48.158;17.118;2023-04-01T02:18:10;12.60;61.00
14877;DHT22;22152;48.158;17.118;2023-04-01T02:21:05;12.70;61.40
14877;DHT22;22152;48.158;17.118;2023-04-01T02:23:38;12.70;61.30
14877;DHT22;22152;48.158;17.118;2023-04-01T02:26:31;12.60;61.10
14877;DHT22;22152;48.158;17.118;2023-04-01T02:29:05;12.60;61.70
14877;DHT22;22152;48.158;17.118;2023-04-01T02:32:00;12.40;62.10
14877;DHT22;22152;48.158;17.118;2023-04-01T02:34:33;12.20;62.80
14877;DHT22;22152;48.158;17.118;2023-04-01T02:37:26;12.00;63.40
14877;DHT22;22152;48.158;17.118;2023-04-01T02:40:03;11.80;64.20
14877;DHT22;22152;48.158;17.118;2023-04-01T02:42:58;11.60;64.70
14877;DHT22;22152;48.158;17.118;2023-04-01T02:45:30;11.50;65.10
14877;DHT22;22152;48.158;17.118;2023-04-01T02:48:23;11.30;65.40
14877;DHT22;22152;48.158;17.118;2023-04-01T02:50:55;11.20;65.70
14877;DHT22;22152;48.158;17.118;2023-04-01T02:53:49;11.10;65.80
14877;DHT22;22152;48.158;17.118;2023-04-01T02:56:21;11.00;66.50
14877;DHT22;22152;48.158;17.118;2023-04-01T02:59:14;10.90;66.90
14877;DHT22;22152;48.158;17.118;2023-04-01T03:01:46;10.80;67.70
14877;DHT22;22152;48.158;17.118;2023-04-01T03:04:39;10.70;67.80
14877;DHT22;22152;48.158;17.118;2023-04-01T03:07:11;10.70;68.50
14877;DHT22;22152;48.158;17.118;2023-04-01T03:10:05;10.70;68.90
14877;DHT22;22152;48.158;17.118;2023-04-01T03:12:38;10.70;69.20
14877;DHT22;22152;48.158;17.118;2023-04-01T03:15:31;10.80;69.10
14877;DHT22;22152;48.158;17.118;2023-04-01T03:18:03;10.80;69.10
14877;DHT22;22152;48.158;17.118;2023-04-01T03:20:56;10.90;69.00
14877;DHT22;22152;48.158;17.118;2023-04-01T03:23:28;10.90;69.10
14877;DHT22;22152;48.158;17.118;2023-04-01T03:26:21;10.90;68.90
14877;DHT22;22152;48.158;17.118;2023-04-01T03:29:00;10.80;69.10
14877;DHT22;22152;48.158;17.118;2023-04-01T03:31:54;10.70;69.40
14877;DHT22;22152;48.158;17.118;2023-04-01T03:34:29;10.70;69.80
14877;DHT22;22152;48.158;17.118;2023-04-01T03:37:23;10.60;69.90
14877;DHT22;22152;48.158;17.118;2023-04-01T03:39:56;10.70;70.40
14877;DHT22;22152;48.158;17.118;2023-04-01T03:42:49;10.70;70.30
14877;DHT22;22152;48.158;17.118;2023-04-01T03:45:22;10.80;70.40
14877;DHT22;22152;48.158;17.118;2023-04-01T03:48:15;10.90;70.20
14877;DHT22;22152;48.158;17.118;2023-04-01T03:50:48;11.10;69.50
14877;DHT22;22152;48.158;17.118;2023-04-01T03:53:41;11.20;69.40
14877;DHT22;22152;48.158;17.118;2023-04-01T03:56:13;11.40;68.00
14877;DHT22;22152;48.158;17.118;2023-04-01T03:59:07;11.60;67.10
14877;DHT22;22152;48.158;17.118;2023-04-01T04:01:40;11.70;66.50
14877;DHT22;22152;48.158;17.118;2023-04-01T04:04:33;11.80;66.00
14877;DHT22;22152;48.158;17.118;2023-04-01T04:07:13;11.90;65.70
14877;DHT22;22152;48.158;17.118;2023-04-01T04:10:07;11.90;65.50
14877;DHT22;22152;48.158;17.118;2023-04-01T04:12:49;12.00;65.40
14877;DHT22;22152;48.158;17.118;2023-04-01T04:15:38;12.00;65.90
14877;DHT22;22152;48.158;17.118;2023-04-01T04:18:17;12.00;64.90
14877;DHT22;22152;48.158;17.118;2023-04-01T04:21:03;12.10;64.90
14877;DHT22;22152;48.158;17.118;2023-04-01T04:23:43;12.20;64.70
14877;DHT22;22152;48.158;17.118;2023-04-01T04:26:29;12.10;64.60
14877;DHT22;22152;48.158;17.118;2023-04-01T04:29:08;12.20;64.60
14877;DHT22;22152;48.158;17.118;2023-04-01T04:31:54;12.20;64.40
14877;DHT22;22152;48.158;17.118;2023-04-01T04:34:33;12.20;64.40
14877;DHT22;22152;48.158;17.118;2023-04-01T04:37:19;12.10;64.50
14877;DHT22;22152;48.158;17.118;2023-04-01T04:40:05;12.00;64.70
14877;DHT22;22152;48.158;17.118;2023-04-01T04:42:58;12.00;65.00
14877;DHT22;22152;48.158;17.118;2023-04-01T04:45:31;11.90;64.90
14877;DHT22;22152;48.158;17.118;2023-04-01T04:48:25;11.80;65.70
14877;DHT22;22152;48.158;17.118;2023-04-01T04:50:57;11.80;65.80
14877;DHT22;22152;48.158;17.118;2023-04-01T04:53:50;11.90;65.80
14877;DHT22;22152;48.158;17.118;2023-04-01T04:56:32;12.00;65.80
14877;DHT22;22152;48.158;17.118;2023-04-01T04:59:26;12.00;65.90
14877;DHT22;22152;48.158;17.118;2023-04-01T05:02:09;12.10;65.60
14877;DHT22;22152;48.158;17.118;2023-04-01T05:05:03;12.20;65.40
14877;DHT22;22152;48.158;17.118;2023-04-01T05:07:43;12.20;65.40
14877;DHT22;22152;48.158;17.118;2023-04-01T05:10:29;12.20;65.30
14877;DHT22;22152;48.158;17.118;2023-04-01T05:13:09;12.30;65.70
14877;DHT22;22152;48.158;17.118;2023-04-01T05:15:56;12.30;65.70
14877;DHT22;22152;48.158;17.118;2023-04-01T05:18:35;12.40;65.50
14877;DHT22;22152;48.158;17.118;2023-04-01T05:21:21;12.50;65.30
14877;DHT22;22152;48.158;17.118;2023-04-01T05:24:01;12.70;66.00
14877;DHT22;22152;48.158;17.118;2023-04-01T05:26:48;12.80;64.80
14877;DHT22;22152;48.158;17.118;2023-04-01T05:29:27;13.00;64.10
14877;DHT22;22152;48.158;17.118;2023-04-01T05:32:19;13.10;63.70
14877;DHT22;22152;48.158;17.118;2023-04-01T05:34:58;13.30;63.60
14877;DHT22;22152;48.158;17.118;2023-04-01T05:37:44;13.40;62.40
14877;DHT22;22152;48.158;17.118;2023-04-01T05:40:30;13.50;61.60
14877;DHT22;22152;48.158;17.118;2023-04-01T05:43:23;13.50;61.40
14877;DHT22;22152;48.158;17.118;2023-04-01T05:46:00;13.50;61.40
14877;DHT22;22152;48.158;17.118;2023-04-01T05:49:02;13.40;60.80
14877;DHT22;22152;48.158;17.118;2023-04-01T05:51:35;13.30;60.70
14877;DHT22;22152;48.158;17.118;2023-04-01T05:54:28;13.20;60.50
14877;DHT22;22152;48.158;17.118;2023-04-01T05:57:00;13.30;60.50
14877;DHT22;22152;48.158;17.118;2023-04-01T05:59:53;13.40;59.90
14877;DHT22;22152;48.158;17.118;2023-04-01T06:02:26;13.60;59.70
14877;DHT22;22152;48.158;17.118;2023-04-01T06:05:22;13.90;59.30
14877;DHT22;22152;48.158;17.118;2023-04-01T06:08:23;14.20;59.10
14877;DHT22;22152;48.158;17.118;2023-04-01T06:11:41;14.50;57.70
14877;DHT22;22152;48.158;17.118;2023-04-01T06:14:56;14.70;56.80
14877;DHT22;22152;48.158;17.118;2023-04-01T06:21:33;16.30;54.40
14877;DHT22;22152;48.158;17.118;2023-04-01T06:31:10;16.30;53.00
14877;DHT22;22152;48.158;17.118;2023-04-01T06:34:27;16.50;52.60
14877;DHT22;22152;48.158;17.118;2023-04-01T06:38:02;16.70;51.60
14877;DHT22;22152;48.158;17.118;2023-04-01T06:41:00;16.90;51.20
14877;DHT22;22152;48.158;17.118;2023-04-01T06:44:47;17.30;51.50
14877;DHT22;22152;48.158;17.118;2023-04-01T06:48:05;17.80;50.30
14877;DHT22;22152;48.158;17.118;2023-04-01T06:51:52;18.10;49.70
14877;DHT22;22152;48.158;17.118;2023-04-01T06:59:02;18.40;48.20
14877;DHT22;22152;48.158;17.118;2023-04-01T07:01:47;18.30;48.20
14877;DHT22;22152;48.158;17.118;2023-04-01T07:04:48;18.30;47.60
14877;DHT22;22152;48.158;17.118;2023-04-01T07:07:41;17.80;48.10
14877;DHT22;22152;48.158;17.118;2023-04-01T07:11:03;17.50;48.60
14877;DHT22;22152;48.158;17.118;2023-04-01T07:17:19;17.00;49.50
14877;DHT22;22152;48.158;17.118;2023-04-01T07:20:03;17.30;49.40
14877;DHT22;22152;48.158;17.118;2023-04-01T07:23:08;17.30;49.10
14877;DHT22;22152;48.158;17.118;2023-04-01T07:26:24;17.20;49.10
14877;DHT22;22152;48.158;17.118;2023-04-01T07:29:27;17.20;49.40
14877;DHT22;22152;48.158;17.118;2023-04-01T07:32:09;17.30;49.60
14877;DHT22;22152;48.158;17.118;2023-04-01T07:38:21;17.30;48.60
14877;DHT22;22152;48.158;17.118;2023-04-01T07:44:40;17.10;48.80
14877;DHT22;22152;48.158;17.118;2023-04-01T07:51:06;17.10;48.90
14877;DHT22;22152;48.158;17.118;2023-04-01T07:54:04;17.10;48.50
14877;DHT22;22152;48.158;17.118;2023-04-01T07:57:23;17.10;48.50
14877;DHT22;22152;48.158;17.118;2023-04-01T08:03:25;17.20;48.20
14877;DHT22;22152;48.158;17.118;2023-04-01T08:06:29;17.20;47.70
14877;DHT22;22152;48.158;17.118;2023-04-01T08:09:48;17.10;47.60
14877;DHT22;22152;48.158;17.118;2023-04-01T08:13:44;17.10;47.90
14877;DHT22;22152;48.158;17.118;2023-04-01T08:20:03;16.80;48.60
14877;DHT22;22152;48.158;17.118;2023-04-01T08:23:16;17.00;48.80
14877;DHT22;22152;48.158;17.118;2023-04-01T08:29:20;17.30;47.80
14877;DHT22;22152;48.158;17.118;2023-04-01T08:32:11;17.40;48.00
14877;DHT22;22152;48.158;17.118;2023-04-01T08:35:18;17.30;47.70
14877;DHT22;22152;48.158;17.118;2023-04-01T08:38:16;17.40;47.40
14877;DHT22;22152;48.158;17.118;2023-04-01T08:41:19;17.40;47.50
14877;DHT22;22152;48.158;17.118;2023-04-01T08:51:37;17.90;46.40
14877;DHT22;22152;48.158;17.118;2023-04-01T09:12:31;18.60;45.60
14877;DHT22;22152;48.158;17.118;2023-04-01T09:15:20;18.70;45.50
14877;DHT22;22152;48.158;17.118;2023-04-01T09:21:15;18.70;45.20
14877;DHT22;22152;48.158;17.118;2023-04-01T09:40:16;18.40;44.80
14877;DHT22;22152;48.158;17.118;2023-04-01T09:43:50;18.10;45.30
14877;DHT22;22152;48.158;17.118;2023-04-01T09:52:50;17.90;47.10
14877;DHT22;22152;48.158;17.118;2023-04-01T10:10:03;17.90;47.00
14877;DHT22;22152;48.158;17.118;2023-04-01T10:25:53;18.60;44.60
14877;DHT22;22152;48.158;17.118;2023-04-01T10:39:20;19.10;43.90
14877;DHT22;22152;48.158;17.118;2023-04-01T11:00:08;18.00;44.90
14877;DHT22;22152;48.158;17.118;2023-04-01T11:17:21;19.10;43.60
14877;DHT22;22152;48.158;17.118;2023-04-01T11:30:00;19.80;41.90
14877;DHT22;22152;48.158;17.118;2023-04-01T11:32:55;19.40;41.60
14877;DHT22;22152;48.158;17.118;2023-04-01T11:42:24;18.90;42.70
14877;DHT22;22152;48.158;17.118;2023-04-01T11:55:02;18.90;41.70
14877;DHT22;22152;48.158;17.118;2023-04-01T12:01:13;19.20;41.20
14877;DHT22;22152;48.158;17.118;2023-04-01T12:17:23;19.70;39.70
14877;DHT22;22152;48.158;17.118;2023-04-01T12:23:16;20.00;39.70
14877;DHT22;22152;48.158;17.118;2023-04-01T12:26:21;20.40;39.10
14877;DHT22;22152;48.158;17.118;2023-04-01T12:33:04;20.30;38.50
14877;DHT22;22152;48.158;17.118;2023-04-01T12:42:36;20.30;38.00
14877;DHT22;22152;48.158;17.118;2023-04-01T12:55:38;19.80;38.20
14877;DHT22;22152;48.158;17.118;2023-04-01T13:01:40;19.60;38.40
14877;DHT22;22152;48.158;17.118;2023-04-01T13:08:18;19.80;38.70
14877;DHT22;22152;48.158;17.118;2023-04-01T13:11:35;20.00;38.70
14877;DHT22;22152;48.158;17.118;2023-04-01T13:18:10;20.10;38.50
14877;DHT22;22152;48.158;17.118;2023-04-01T13:21:14;20.10;38.30
14877;DHT22;22152;48.158;17.118;2023-04-01T13:28:12;19.80;38.10
14877;DHT22;22152;48.158;17.118;2023-04-01T13:45:46;19.00;39.40
14877;DHT22;22152;48.158;17.118;2023-04-01T13:52:59;19.00;39.30
14877;DHT22;22152;48.158;17.118;2023-04-01T14:13:18;17.90;40.90
14877;DHT22;22152;48.158;17.118;2023-04-01T14:29:05;17.60;42.00
14877;DHT22;22152;48.158;17.118;2023-04-01T14:32:34;17.60;42.10
14877;DHT22;22152;48.158;17.118;2023-04-01T14:36:27;17.50;42.40
14877;DHT22;22152;48.158;17.118;2023-04-01T14:49:32;17.10;43.60
14877;DHT22;22152;48.158;17.118;2023-04-01T14:52:32;16.90;43.90
14877;DHT22;22152;48.158;17.118;2023-04-01T14:55:31;16.90;44.20
14877;DHT22;22152;48.158;17.118;2023-04-01T14:58:45;16.90;44.20
14877;DHT22;22152;48.158;17.118;2023-04-01T15:14:18;17.40;43.80
14877;DHT22;22152;48.158;17.118;2023-04-01T15:17:37;17.40;43.90
14877;DHT22;22152;48.158;17.118;2023-04-01T15:20:50;17.50;44.10
14877;DHT22;22152;48.158;17.118;2023-04-01T15:24:10;17.70;43.80
14877;DHT22;22152;48.158;17.118;2023-04-01T15:30:31;17.50;43.80
14877;DHT22;22152;48.158;17.118;2023-04-01T15:37:04;17.10;44.50
14877;DHT22;22152;48.158;17.118;2023-04-01T15:39:54;16.90;45.10
14877;DHT22;22152;48.158;17.118;2023-04-01T15:46:46;16.80;45.80
14877;DHT22;22152;48.158;17.118;2023-04-01T15:49:43;16.90;45.80
14877;DHT22;22152;48.158;17.118;2023-04-01T15:53:05;16.90;45.90
14877;DHT22;22152;48.158;17.118;2023-04-01T15:55:53;16.80;45.90
14877;DHT22;22152;48.158;17.118;2023-04-01T16:05:25;16.60;46.00
14877;DHT22;22152;48.158;17.118;2023-04-01T16:18:34;16.10;46.90
14877;DHT22;22152;48.158;17.118;2023-04-01T16:24:22;15.90;47.30
14877;DHT22;22152;48.158;17.118;2023-04-01T16:30:44;15.80;48.30
14877;DHT22;22152;48.158;17.118;2023-04-01T16:33:35;15.70;48.20
14877;DHT22;22152;48.158;17.118;2023-04-01T16:36:47;15.70;48.20
14877;DHT22;22152;48.158;17.118;2023-04-01T16:39:49;15.60;47.80
14877;DHT22;22152;48.158;17.118;2023-04-01T16:43:21;15.60;47.60
14877;DHT22;22152;48.158;17.118;2023-04-01T16:49:29;15.40;49.00
14877;DHT22;22152;48.158;17.118;2023-04-01T16:52:43;15.30;49.40
14877;DHT22;22152;48.158;17.118;2023-04-01T16:55:21;15.10;50.10
14877;DHT22;22152;48.158;17.118;2023-04-01T16:58:27;15.00;50.30
14877;DHT22;22152;48.158;17.118;2023-04-01T17:01:11;14.90;50.60
14877;DHT22;22152;48.158;17.118;2023-04-01T17:10:37;14.70;50.80
14877;DHT22;22152;48.158;17.118;2023-04-01T17:16:44;14.80;51.20
14877;DHT22;22152;48.158;17.118;2023-04-01T17:26:15;15.00;49.40
14877;DHT22;22152;48.158;17.118;2023-04-01T17:29:33;15.10;49.20
14877;DHT22;22152;48.158;17.118;2023-04-01T17:41:36;15.00;49.30
14877;DHT22;22152;48.158;17.118;2023-04-01T17:45:01;15.00;49.50
14877;DHT22;22152;48.158;17.118;2023-04-01T17:47:52;15.00;49.80
14877;DHT22;22152;48.158;17.118;2023-04-01T17:54:36;15.00;49.80
14877;DHT22;22152;48.158;17.118;2023-04-01T18:11:16;14.90;51.10
14877;DHT22;22152;48.158;17.118;2023-04-01T18:18:24;14.70;51.40
14877;DHT22;22152;48.158;17.118;2023-04-01T18:25:22;14.70;51.90
14877;DHT22;22152;48.158;17.118;2023-04-01T18:36:44;14.50;52.90
14877;DHT22;22152;48.158;17.118;2023-04-01T18:39:41;14.30;53.20
14877;DHT22;22152;48.158;17.118;2023-04-01T18:43:08;14.20;53.90
14877;DHT22;22152;48.158;17.118;2023-04-01T18:46:21;14.10;54.10
14877;DHT22;22152;48.158;17.118;2023-04-01T18:49:12;14.00;54.30
14877;DHT22;22152;48.158;17.118;2023-04-01T18:52:22;14.00;54.70
14877;DHT22;22152;48.158;17.118;2023-04-01T18:58:08;13.90;55.80
14877;DHT22;22152;48.158;17.118;2023-04-01T19:04:17;13.90;55.70
14877;DHT22;22152;48.158;17.118;2023-04-01T19:06:54;13.80;56.00
14877;DHT22;22152;48.158;17.118;2023-04-01T19:09:50;13.80;56.00
14877;DHT22;22152;48.158;17.118;2023-04-01T19:12:28;13.80;56.20
14877;DHT22;22152;48.158;17.118;2023-04-01T19:35:06;13.50;57.70
14877;DHT22;22152;48.158;17.118;2023-04-01T19:37:59;13.50;57.90
14877;DHT22;22152;48.158;17.118;2023-04-01T19:41:36;13.50;58.10
14877;DHT22;22152;48.158;17.118;2023-04-01T19:47:54;13.50;59.00
14877;DHT22;22152;48.158;17.118;2023-04-01T19:57:32;13.30;58.50
14877;DHT22;22152;48.158;17.118;2023-04-01T20:06:35;13.20;58.60
14877;DHT22;22152;48.158;17.118;2023-04-01T20:12:59;12.90;59.20
14877;DHT22;22152;48.158;17.118;2023-04-01T20:16:06;12.90;59.50
14877;DHT22;22152;48.158;17.118;2023-04-01T20:18:58;12.80;59.50
14877;DHT22;22152;48.158;17.118;2023-04-01T20:21:59;12.80;59.60
14877;DHT22;22152;48.158;17.118;2023-04-01T20:24:41;12.80;59.90
14877;DHT22;22152;48.158;17.118;2023-04-01T20:27:40;12.80;60.00
14877;DHT22;22152;48.158;17.118;2023-04-01T20:34:45;12.60;60.10
14877;DHT22;22152;48.158;17.118;2023-04-01T20:37:57;12.50;61.00
14877;DHT22;22152;48.158;17.118;2023-04-01T20:43:33;12.30;62.60
14877;DHT22;22152;48.158;17.118;2023-04-01T20:52:57;12.10;62.70
14877;DHT22;22152;48.158;17.118;2023-04-01T21:02:11;11.90;63.50
14877;DHT22;22152;48.158;17.118;2023-04-01T21:12:19;11.90;64.50
14877;DHT22;22152;48.158;17.118;2023-04-01T21:21:46;12.20;64.40
14877;DHT22;22152;48.158;17.118;2023-04-01T21:28:20;12.40;63.80
14877;DHT22;22152;48.158;17.118;2023-04-01T21:44:33;12.70;63.20
14877;DHT22;22152;48.158;17.118;2023-04-01T21:47:54;12.80;63.20
14877;DHT22;22152;48.158;17.118;2023-04-01T22:07:31;13.00;62.50
14877;DHT22;22152;48.158;17.118;2023-04-01T22:10:24;13.00;62.50
14877;DHT22;22152;48.158;17.118;2023-04-01T22:13:37;13.00;62.60
14877;DHT22;22152;48.158;17.118;2023-04-01T22:19:32;13.00;62.30
14877;DHT22;22152;48.158;17.118;2023-04-01T22:22:22;13.10;62.40
14877;DHT22;22152;48.158;17.118;2023-04-01T22:25:29;13.10;62.70
14877;DHT22;22152;48.158;17.118;2023-04-01T22:28:25;13.00;62.70
14877;DHT22;22152;48.158;17.118;2023-04-01T22:31:28;13.00;62.60
14877;DHT22;22152;48.158;17.118;2023-04-01T22:34:19;13.00;62.60
14877;DHT22;22152;48.158;17.118;2023-04-01T22:37:45;13.00;62.70
14877;DHT22;22152;48.158;17.118;2023-04-01T22:44:27;13.00;62.90
14877;DHT22;22152;48.158;17.118;2023-04-01T22:50:22;13.00;63.00
14877;DHT22;22152;48.158;17.118;2023-04-01T22:53:44;13.00;62.80
14877;DHT22;22152;48.158;17.118;2023-04-01T22:56:41;13.00;63.00
14877;DHT22;22152;48.158;17.118;2023-04-01T23:02:30;13.00;63.10
14877;DHT22;22152;48.158;17.118;2023-04-01T23:05:27;13.00;63.10
14877;DHT22;22152;48.158;17.118;2023-04-01T23:14:43;13.00;63.00
14877;DHT22;22152;48.158;17.118;2023-04-01T23:17:58;13.00;63.20
14877;DHT22;22152;48.158;17.118;2023-04-01T23:21:00;13.00;63.30
14877;DHT22;22152;48.158;17.118;2023-04-01T23:27:11;12.90;63.50
14877;DHT22;22152;48.158;17.118;2023-04-01T23:33:23;12.90;63.50
14877;DHT22;22152;48.158;17.118;2023-04-01T23:36:14;12.90;63.60
14877;DHT22;22152;48.158;17.118;2023-04-01T23:38:54;13.00;64.50
14877;DHT22;22152;48.158;17.118;2023-04-01T23:41:42;12.90;64.50
14877;DHT22;22152;48.158;17.118;2023-04-01T23:44:36;12.90;64.70
14877;DHT22;22152;48.158;17.118;2023-04-01T23:47:14;12.90;65.30
14877;DHT22;22152;48.158;17.118;2023-04-01T23:50:23;12.90;65.20
14877;DHT22;22152;48.158;17.118;2023-04-01T23:56:17;12.80;65.10
14877;DHT22;22152;48.158;17.118;2023-04-01T23:58:52;12.70;66.00
